sensor_id;sensor_type;location;lat;lon;timestamp;P1;durP1;ratioP1;P2;durP2;ratioP2
81217;SDS011;70689;52.494;13.420;2023-08-01T00:01:32;5.45;;;3.40;;
81217;SDS011;70689;52.494;13.420;2023-08-01T00:03:57;7.57;;;3.65;;
81217;SDS011;70689;52.494;13.420;2023-08-01T00:06:23;6.15;;;4.32;;
81217;SDS011;70689;52.494;13.420;2023-08-01T00:08:50;7.35;;;3.90;;
81217;SDS011;70689;52.494;13.420;2023-08-01T00:11:16;6.05;;;3.15;;
81217;SDS011;70689;52.494;13.420;2023-08-01T00:13:41;7.45;;;3.25;;
81217;SDS011;70689;52.494;13.420;2023-08-01T00:16:08;6.57;;;3.50;;
81217;SDS011;70689;52.494;13.420;2023-08-01T00:18:34;8.63;;;3.88;;
81217;SDS011;70689;52.494;13.420;2023-08-01T00:21:00;6.43;;;3.45;;
81217;SDS011;70689;52.494;13.420;2023-08-01T00:23:26;15.00;;;3.70;;
81217;SDS011;70689;52.494;13.420;2023-08-01T00:25:52;7.40;;;3.60;;
81217;SDS011;70689;52.494;13.420;2023-08-01T00:28:18;4.30;;;3.03;;
81217;SDS011;70689;52.494;13.420;2023-08-01T00:30:43;6.25;;;3.20;;
81217;SDS011;70689;52.494;13.420;2023-08-01T00:33:09;4.70;;;3.08;;
81217;SDS011;70689;52.494;13.420;2023-08-01T00:35:35;6.57;;;2.90;;
81217;SDS011;70689;52.494;13.420;2023-08-01T00:38:00;5.40;;;3.17;;
81217;SDS011;70689;52.494;13.420;2023-08-01T00:40:32;5.05;;;2.80;;
81217;SDS011;70689;52.494;13.420;2023-08-01T00:42:59;6.90;;;2.80;;
81217;SDS011;70689;52.494;13.420;2023-08-01T00:45:27;4.38;;;2.60;;
81217;SDS011;70689;52.494;13.420;2023-08-01T00:47:54;4.82;;;2.40;;
81217;SDS011;70689;52.494;13.420;2023-08-01T00:50:21;4.18;;;2.55;;
81217;SDS011;70689;52.494;13.420;2023-08-01T00:52:49;3.70;;;2.40;;
81217;SDS011;70689;52.494;13.420;2023-08-01T00:55:16;3.60;;;2.42;;
81217;SDS011;70689;52.494;13.420;2023-08-01T00:57:43;3.58;;;2.30;;
81217;SDS011;70689;52.494;13.420;2023-08-01T01:00:09;3.90;;;2.38;;
81217;SDS011;70689;52.494;13.420;2023-08-01T01:02:35;4.22;;;2.55;;
81217;SDS011;70689;52.494;13.420;2023-08-01T01:05:01;4.30;;;2.53;;
81217;SDS011;70689;52.494;13.420;2023-08-01T01:07:28;5.75;;;2.72;;
81217;SDS011;70689;52.494;13.420;2023-08-01T01:09:54;3.28;;;2.30;;
81217;SDS011;70689;52.494;13.420;2023-08-01T01:12:20;3.30;;;2.53;;
81217;SDS011;70689;52.494;13.420;2023-08-01T01:14:46;4.32;;;2.78;;
81217;SDS011;70689;52.494;13.420;2023-08-01T01:17:11;5.28;;;2.67;;
81217;SDS011;70689;52.494;13.420;2023-08-01T01:19:37;11.10;;;3.08;;
81217;SDS011;70689;52.494;13.420;2023-08-01T01:22:18;4.70;;;2.83;;
81217;SDS011;70689;52.494;13.420;2023-08-01T01:24:44;5.30;;;3.08;;
81217;SDS011;70689;52.494;13.420;2023-08-01T01:27:11;5.03;;;3.30;;
81217;SDS011;70689;52.494;13.420;2023-08-01T01:29:38;5.25;;;3.00;;
81217;SDS011;70689;52.494;13.420;2023-08-01T01:32:04;3.30;;;2.58;;
81217;SDS011;70689;52.494;13.420;2023-08-01T01:34:31;5.78;;;2.90;;
81217;SDS011;70689;52.494;13.420;2023-08-01T01:36:56;4.28;;;3.00;;
81217;SDS011;70689;52.494;13.420;2023-08-01T01:39:22;6.22;;;3.10;;
81217;SDS011;70689;52.494;13.420;2023-08-01T01:41:48;5.40;;;3.17;;
81217;SDS011;70689;52.494;13.420;2023-08-01T01:44:13;4.90;;;2.97;;
81217;SDS011;70689;52.494;13.420;2023-08-01T01:46:39;5.80;;;3.60;;
81217;SDS011;70689;52.494;13.420;2023-08-01T01:49:04;5.57;;;3.42;;
81217;SDS011;70689;52.494;13.420;2023-08-01T01:51:30;5.38;;;3.20;;
81217;SDS011;70689;52.494;13.420;2023-08-01T01:53:56;4.97;;;3.45;;
81217;SDS011;70689;52.494;13.420;2023-08-01T01:56:21;6.80;;;3.35;;
81217;SDS011;70689;52.494;13.420;2023-08-01T01:58:47;5.03;;;3.00;;
81217;SDS011;70689;52.494;13.420;2023-08-01T02:01:13;5.95;;;3.13;;
81217;SDS011;70689;52.494;13.420;2023-08-01T02:03:38;5.50;;;3.42;;
81217;SDS011;70689;52.494;13.420;2023-08-01T02:06:04;6.78;;;3.67;;
81217;SDS011;70689;52.494;13.420;2023-08-01T02:08:30;4.65;;;3.25;;
81217;SDS011;70689;52.494;13.420;2023-08-01T02:10:56;6.00;;;3.70;;
81217;SDS011;70689;52.494;13.420;2023-08-01T02:13:23;6.65;;;3.20;;
81217;SDS011;70689;52.494;13.420;2023-08-01T02:15:52;5.75;;;3.40;;
81217;SDS011;70689;52.494;13.420;2023-08-01T02:18:18;5.07;;;3.05;;
81217;SDS011;70689;52.494;13.420;2023-08-01T02:20:44;4.53;;;3.10;;
81217;SDS011;70689;52.494;13.420;2023-08-01T02:23:10;5.35;;;3.50;;
81217;SDS011;70689;52.494;13.420;2023-08-01T02:25:41;8.20;;;3.10;;
81217;SDS011;70689;52.494;13.420;2023-08-01T02:28:07;7.20;;;3.60;;
81217;SDS011;70689;52.494;13.420;2023-08-01T02:30:33;6.28;;;3.70;;
81217;SDS011;70689;52.494;13.420;2023-08-01T02:33:00;5.38;;;3.72;;
81217;SDS011;70689;52.494;13.420;2023-08-01T02:35:26;4.72;;;3.50;;
81217;SDS011;70689;52.494;13.420;2023-08-01T02:37:53;8.23;;;3.58;;
81217;SDS011;70689;52.494;13.420;2023-08-01T02:40:19;6.47;;;3.80;;
81217;SDS011;70689;52.494;13.420;2023-08-01T02:42:44;9.02;;;3.92;;
81217;SDS011;70689;52.494;13.420;2023-08-01T02:45:10;5.28;;;3.50;;
81217;SDS011;70689;52.494;13.420;2023-08-01T02:47:36;7.03;;;3.92;;
81217;SDS011;70689;52.494;13.420;2023-08-01T02:50:01;7.57;;;3.88;;
81217;SDS011;70689;52.494;13.420;2023-08-01T02:52:27;5.88;;;3.72;;
81217;SDS011;70689;52.494;13.420;2023-08-01T02:54:53;5.82;;;3.80;;
81217;SDS011;70689;52.494;13.420;2023-08-01T02:57:18;7.88;;;3.80;;
81217;SDS011;70689;52.494;13.420;2023-08-01T02:59:44;9.95;;;4.05;;
81217;SDS011;70689;52.494;13.420;2023-08-01T03:02:10;6.78;;;3.75;;
81217;SDS011;70689;52.494;13.420;2023-08-01T03:04:35;6.15;;;3.55;;
81217;SDS011;70689;52.494;13.420;2023-08-01T03:07:01;7.75;;;3.85;;
81217;SDS011;70689;52.494;13.420;2023-08-01T03:09:26;5.30;;;3.40;;
81217;SDS011;70689;52.494;13.420;2023-08-01T03:11:52;6.75;;;3.90;;
81217;SDS011;70689;52.494;13.420;2023-08-01T03:14:18;6.10;;;3.97;;
81217;SDS011;70689;52.494;13.420;2023-08-01T03:16:43;5.75;;;4.00;;
81217;SDS011;70689;52.494;13.420;2023-08-01T03:19:09;7.43;;;3.75;;
81217;SDS011;70689;52.494;13.420;2023-08-01T03:21:34;6.15;;;3.88;;
81217;SDS011;70689;52.494;13.420;2023-08-01T03:24:00;5.95;;;3.55;;
81217;SDS011;70689;52.494;13.420;2023-08-01T03:26:27;6.57;;;3.60;;
81217;SDS011;70689;52.494;13.420;2023-08-01T03:28:53;5.88;;;3.35;;
81217;SDS011;70689;52.494;13.420;2023-08-01T03:31:22;5.80;;;3.22;;
81217;SDS011;70689;52.494;13.420;2023-08-01T03:33:48;8.35;;;3.40;;
81217;SDS011;70689;52.494;13.420;2023-08-01T03:36:13;7.07;;;3.58;;
81217;SDS011;70689;52.494;13.420;2023-08-01T03:38:39;5.43;;;3.30;;
81217;SDS011;70689;52.494;13.420;2023-08-01T03:41:05;6.97;;;3.70;;
81217;SDS011;70689;52.494;13.420;2023-08-01T03:43:31;8.45;;;3.60;;
81217;SDS011;70689;52.494;13.420;2023-08-01T03:45:56;8.23;;;3.55;;
81217;SDS011;70689;52.494;13.420;2023-08-01T03:48:22;5.07;;;3.38;;
81217;SDS011;70689;52.494;13.420;2023-08-01T03:50:48;5.68;;;3.60;;
81217;SDS011;70689;52.494;13.420;2023-08-01T03:53:13;8.07;;;3.60;;
81217;SDS011;70689;52.494;13.420;2023-08-01T03:55:39;5.57;;;3.40;;
81217;SDS011;70689;52.494;13.420;2023-08-01T03:58:05;5.85;;;3.15;;
81217;SDS011;70689;52.494;13.420;2023-08-01T04:00:30;5.80;;;3.72;;
81217;SDS011;70689;52.494;13.420;2023-08-01T04:02:59;5.75;;;3.65;;
81217;SDS011;70689;52.494;13.420;2023-08-01T04:05:26;6.60;;;3.47;;
81217;SDS011;70689;52.494;13.420;2023-08-01T04:07:53;8.98;;;3.50;;
81217;SDS011;70689;52.494;13.420;2023-08-01T04:10:22;5.80;;;3.13;;
81217;SDS011;70689;52.494;13.420;2023-08-01T04:12:48;5.63;;;3.60;;
81217;SDS011;70689;52.494;13.420;2023-08-01T04:15:14;4.93;;;3.28;;
81217;SDS011;70689;52.494;13.420;2023-08-01T04:17:39;5.53;;;3.03;;
81217;SDS011;70689;52.494;13.420;2023-08-01T04:20:05;5.43;;;3.25;;
81217;SDS011;70689;52.494;13.420;2023-08-01T04:22:31;4.72;;;3.20;;
81217;SDS011;70689;52.494;13.420;2023-08-01T04:24:57;6.55;;;3.40;;
81217;SDS011;70689;52.494;13.420;2023-08-01T04:27:23;4.72;;;3.05;;
81217;SDS011;70689;52.494;13.420;2023-08-01T04:29:48;4.03;;;2.90;;
81217;SDS011;70689;52.494;13.420;2023-08-01T04:32:14;5.65;;;3.40;;
81217;SDS011;70689;52.494;13.420;2023-08-01T04:34:40;7.82;;;3.17;;
81217;SDS011;70689;52.494;13.420;2023-08-01T04:37:06;5.82;;;3.10;;
81217;SDS011;70689;52.494;13.420;2023-08-01T04:39:32;5.45;;;3.10;;
81217;SDS011;70689;52.494;13.420;2023-08-01T04:41:58;7.97;;;3.00;;
81217;SDS011;70689;52.494;13.420;2023-08-01T04:44:24;5.15;;;3.15;;
81217;SDS011;70689;52.494;13.420;2023-08-01T04:46:49;7.47;;;2.97;;
81217;SDS011;70689;52.494;13.420;2023-08-01T04:49:15;6.07;;;3.17;;
81217;SDS011;70689;52.494;13.420;2023-08-01T04:51:41;5.43;;;2.90;;
81217;SDS011;70689;52.494;13.420;2023-08-01T04:54:06;5.88;;;2.97;;
81217;SDS011;70689;52.494;13.420;2023-08-01T04:56:32;4.47;;;3.00;;
81217;SDS011;70689;52.494;13.420;2023-08-01T04:58:57;6.28;;;3.30;;
81217;SDS011;70689;52.494;13.420;2023-08-01T05:01:23;4.65;;;3.15;;
81217;SDS011;70689;52.494;13.420;2023-08-01T05:03:48;5.88;;;3.40;;
81217;SDS011;70689;52.494;13.420;2023-08-01T05:06:14;4.90;;;3.00;;
81217;SDS011;70689;52.494;13.420;2023-08-01T05:08:40;4.78;;;3.08;;
81217;SDS011;70689;52.494;13.420;2023-08-01T05:11:05;6.85;;;3.33;;
81217;SDS011;70689;52.494;13.420;2023-08-01T05:13:31;5.75;;;3.35;;
81217;SDS011;70689;52.494;13.420;2023-08-01T05:15:56;5.25;;;3.17;;
81217;SDS011;70689;52.494;13.420;2023-08-01T05:18:22;7.70;;;3.13;;
81217;SDS011;70689;52.494;13.420;2023-08-01T05:20:48;6.22;;;3.50;;
81217;SDS011;70689;52.494;13.420;2023-08-01T05:23:13;5.38;;;3.28;;
81217;SDS011;70689;52.494;13.420;2023-08-01T05:25:39;6.50;;;2.92;;
81217;SDS011;70689;52.494;13.420;2023-08-01T05:28:04;4.90;;;3.28;;
81217;SDS011;70689;52.494;13.420;2023-08-01T05:30:30;4.60;;;3.10;;
81217;SDS011;70689;52.494;13.420;2023-08-01T05:32:56;4.90;;;3.10;;
81217;SDS011;70689;52.494;13.420;2023-08-01T05:35:21;5.97;;;3.40;;
81217;SDS011;70689;52.494;13.420;2023-08-01T05:37:47;5.60;;;3.08;;
81217;SDS011;70689;52.494;13.420;2023-08-01T05:40:12;5.40;;;3.10;;
81217;SDS011;70689;52.494;13.420;2023-08-01T05:42:38;6.18;;;3.05;;
81217;SDS011;70689;52.494;13.420;2023-08-01T05:45:04;6.20;;;3.40;;
81217;SDS011;70689;52.494;13.420;2023-08-01T05:47:30;4.80;;;3.20;;
81217;SDS011;70689;52.494;13.420;2023-08-01T05:49:56;5.10;;;3.28;;
81217;SDS011;70689;52.494;13.420;2023-08-01T05:52:21;4.97;;;3.17;;
81217;SDS011;70689;52.494;13.420;2023-08-01T05:54:47;4.22;;;3.00;;
81217;SDS011;70689;52.494;13.420;2023-08-01T05:57:13;4.80;;;3.20;;
81217;SDS011;70689;52.494;13.420;2023-08-01T05:59:39;6.03;;;2.70;;
81217;SDS011;70689;52.494;13.420;2023-08-01T06:02:05;5.68;;;3.28;;
81217;SDS011;70689;52.494;13.420;2023-08-01T06:04:31;4.82;;;3.10;;
81217;SDS011;70689;52.494;13.420;2023-08-01T06:06:57;4.25;;;2.75;;
81217;SDS011;70689;52.494;13.420;2023-08-01T06:09:23;5.88;;;2.88;;
81217;SDS011;70689;52.494;13.420;2023-08-01T06:11:49;4.38;;;3.00;;
81217;SDS011;70689;52.494;13.420;2023-08-01T06:14:15;5.35;;;3.05;;
81217;SDS011;70689;52.494;13.420;2023-08-01T06:16:41;5.05;;;3.00;;
81217;SDS011;70689;52.494;13.420;2023-08-01T06:19:07;4.50;;;3.00;;
81217;SDS011;70689;52.494;13.420;2023-08-01T06:21:32;4.78;;;2.80;;
81217;SDS011;70689;52.494;13.420;2023-08-01T06:23:58;5.20;;;3.20;;
81217;SDS011;70689;52.494;13.420;2023-08-01T06:26:23;5.43;;;3.13;;
81217;SDS011;70689;52.494;13.420;2023-08-01T06:28:49;4.13;;;2.95;;
81217;SDS011;70689;52.494;13.420;2023-08-01T06:31:17;4.43;;;2.58;;
81217;SDS011;70689;52.494;13.420;2023-08-01T06:33:43;4.38;;;2.83;;
81217;SDS011;70689;52.494;13.420;2023-08-01T06:36:09;4.05;;;2.78;;
81217;SDS011;70689;52.494;13.420;2023-08-01T06:38:35;5.22;;;2.47;;
81217;SDS011;70689;52.494;13.420;2023-08-01T06:41:00;5.72;;;2.60;;
81217;SDS011;70689;52.494;13.420;2023-08-01T06:43:26;4.43;;;2.58;;
81217;SDS011;70689;52.494;13.420;2023-08-01T06:45:51;3.53;;;2.72;;
81217;SDS011;70689;52.494;13.420;2023-08-01T06:48:17;4.70;;;2.60;;
81217;SDS011;70689;52.494;13.420;2023-08-01T06:50:43;3.42;;;2.58;;
81217;SDS011;70689;52.494;13.420;2023-08-01T06:53:08;4.28;;;2.53;;
81217;SDS011;70689;52.494;13.420;2023-08-01T06:55:34;6.03;;;2.63;;
81217;SDS011;70689;52.494;13.420;2023-08-01T06:58:00;8.73;;;2.65;;
81217;SDS011;70689;52.494;13.420;2023-08-01T07:00:25;4.60;;;2.80;;
81217;SDS011;70689;52.494;13.420;2023-08-01T07:02:51;4.00;;;2.53;;
81217;SDS011;70689;52.494;13.420;2023-08-01T07:05:16;4.35;;;2.80;;
81217;SDS011;70689;52.494;13.420;2023-08-01T07:07:42;3.55;;;2.67;;
81217;SDS011;70689;52.494;13.420;2023-08-01T07:10:08;6.35;;;2.65;;
81217;SDS011;70689;52.494;13.420;2023-08-01T07:12:34;4.55;;;2.75;;
81217;SDS011;70689;52.494;13.420;2023-08-01T07:15:00;3.03;;;2.40;;
81217;SDS011;70689;52.494;13.420;2023-08-01T07:17:25;3.75;;;2.60;;
81217;SDS011;70689;52.494;13.420;2023-08-01T07:19:51;3.55;;;2.40;;
81217;SDS011;70689;52.494;13.420;2023-08-01T07:22:16;6.00;;;2.78;;
81217;SDS011;70689;52.494;13.420;2023-08-01T07:24:42;4.50;;;2.33;;
81217;SDS011;70689;52.494;13.420;2023-08-01T07:27:08;3.28;;;2.53;;
81217;SDS011;70689;52.494;13.420;2023-08-01T07:29:33;4.10;;;2.50;;
81217;SDS011;70689;52.494;13.420;2023-08-01T07:31:59;4.13;;;2.42;;
81217;SDS011;70689;52.494;13.420;2023-08-01T07:34:24;5.40;;;2.60;;
81217;SDS011;70689;52.494;13.420;2023-08-01T07:36:50;5.25;;;2.53;;
81217;SDS011;70689;52.494;13.420;2023-08-01T07:39:16;6.32;;;2.63;;
81217;SDS011;70689;52.494;13.420;2023-08-01T07:41:41;4.03;;;2.30;;
81217;SDS011;70689;52.494;13.420;2023-08-01T07:44:07;3.40;;;2.47;;
81217;SDS011;70689;52.494;13.420;2023-08-01T07:46:33;3.47;;;2.30;;
81217;SDS011;70689;52.494;13.420;2023-08-01T07:48:58;3.10;;;2.30;;
81217;SDS011;70689;52.494;13.420;2023-08-01T07:51:24;4.13;;;2.42;;
81217;SDS011;70689;52.494;13.420;2023-08-01T07:53:51;2.85;;;2.20;;
81217;SDS011;70689;52.494;13.420;2023-08-01T07:56:18;3.20;;;2.08;;
81217;SDS011;70689;52.494;13.420;2023-08-01T07:58:44;3.80;;;2.30;;
81217;SDS011;70689;52.494;13.420;2023-08-01T08:01:10;3.22;;;2.22;;
81217;SDS011;70689;52.494;13.420;2023-08-01T08:03:35;3.00;;;2.08;;
81217;SDS011;70689;52.494;13.420;2023-08-01T08:06:01;3.30;;;2.20;;
81217;SDS011;70689;52.494;13.420;2023-08-01T08:08:28;3.92;;;2.03;;
81217;SDS011;70689;52.494;13.420;2023-08-01T08:10:55;4.63;;;2.00;;
81217;SDS011;70689;52.494;13.420;2023-08-01T08:13:21;3.47;;;2.28;;
81217;SDS011;70689;52.494;13.420;2023-08-01T08:15:47;3.15;;;2.00;;
81217;SDS011;70689;52.494;13.420;2023-08-01T08:18:12;4.15;;;2.00;;
81217;SDS011;70689;52.494;13.420;2023-08-01T08:20:42;2.30;;;1.85;;
81217;SDS011;70689;52.494;13.420;2023-08-01T08:23:09;5.07;;;2.05;;
81217;SDS011;70689;52.494;13.420;2023-08-01T08:25:35;3.20;;;2.20;;
81217;SDS011;70689;52.494;13.420;2023-08-01T08:28:01;3.88;;;1.77;;
81217;SDS011;70689;52.494;13.420;2023-08-01T08:30:27;3.53;;;1.85;;
81217;SDS011;70689;52.494;13.420;2023-08-01T08:32:53;3.80;;;1.77;;
81217;SDS011;70689;52.494;13.420;2023-08-01T08:35:18;2.38;;;1.90;;
81217;SDS011;70689;52.494;13.420;2023-08-01T08:37:44;2.97;;;1.98;;
81217;SDS011;70689;52.494;13.420;2023-08-01T08:40:10;3.25;;;1.85;;
81217;SDS011;70689;52.494;13.420;2023-08-01T08:42:37;2.72;;;1.80;;
81217;SDS011;70689;52.494;13.420;2023-08-01T08:45:04;2.35;;;1.90;;
81217;SDS011;70689;52.494;13.420;2023-08-01T08:47:31;2.28;;;1.83;;
81217;SDS011;70689;52.494;13.420;2023-08-01T08:50:03;2.55;;;1.67;;
81217;SDS011;70689;52.494;13.420;2023-08-01T08:52:30;2.58;;;1.73;;
81217;SDS011;70689;52.494;13.420;2023-08-01T08:54:56;2.42;;;1.80;;
81217;SDS011;70689;52.494;13.420;2023-08-01T08:57:22;1.90;;;1.60;;
81217;SDS011;70689;52.494;13.420;2023-08-01T08:59:48;2.67;;;1.75;;
81217;SDS011;70689;52.494;13.420;2023-08-01T09:02:16;2.03;;;1.60;;
81217;SDS011;70689;52.494;13.420;2023-08-01T09:04:42;2.42;;;1.58;;
81217;SDS011;70689;52.494;13.420;2023-08-01T09:07:09;3.33;;;1.75;;
81217;SDS011;70689;52.494;13.420;2023-08-01T09:09:38;2.88;;;1.50;;
81217;SDS011;70689;52.494;13.420;2023-08-01T09:12:03;3.55;;;1.48;;
81217;SDS011;70689;52.494;13.420;2023-08-01T09:14:29;1.65;;;1.30;;
81217;SDS011;70689;52.494;13.420;2023-08-01T09:17:05;1.50;;;1.40;;
81217;SDS011;70689;52.494;13.420;2023-08-01T09:19:34;1.92;;;1.40;;
81217;SDS011;70689;52.494;13.420;2023-08-01T09:21:59;2.45;;;1.40;;
81217;SDS011;70689;52.494;13.420;2023-08-01T09:24:25;1.30;;;1.20;;
81217;SDS011;70689;52.494;13.420;2023-08-01T09:26:51;2.08;;;1.20;;
81217;SDS011;70689;52.494;13.420;2023-08-01T09:29:17;1.35;;;1.05;;
81217;SDS011;70689;52.494;13.420;2023-08-01T09:31:43;1.30;;;1.08;;
81217;SDS011;70689;52.494;13.420;2023-08-01T09:34:19;1.20;;;1.10;;
81217;SDS011;70689;52.494;13.420;2023-08-01T09:36:50;1.90;;;1.10;;
81217;SDS011;70689;52.494;13.420;2023-08-01T09:39:17;1.63;;;1.00;;
81217;SDS011;70689;52.494;13.420;2023-08-01T09:41:45;0.90;;;0.90;;
81217;SDS011;70689;52.494;13.420;2023-08-01T09:44:11;1.60;;;1.10;;
81217;SDS011;70689;52.494;13.420;2023-08-01T09:46:40;2.20;;;1.10;;
81217;SDS011;70689;52.494;13.420;2023-08-01T09:49:07;1.20;;;1.10;;
81217;SDS011;70689;52.494;13.420;2023-08-01T09:51:34;2.08;;;0.80;;
81217;SDS011;70689;52.494;13.420;2023-08-01T09:54:10;1.00;;;0.90;;
81217;SDS011;70689;52.494;13.420;2023-08-01T09:56:36;1.02;;;1.02;;
81217;SDS011;70689;52.494;13.420;2023-08-01T09:59:02;1.52;;;0.90;;
81217;SDS011;70689;52.494;13.420;2023-08-01T10:01:29;0.82;;;0.82;;
81217;SDS011;70689;52.494;13.420;2023-08-01T10:03:58;1.67;;;0.95;;
81217;SDS011;70689;52.494;13.420;2023-08-01T10:06:24;1.05;;;0.95;;
81217;SDS011;70689;52.494;13.420;2023-08-01T10:08:56;0.95;;;0.70;;
81217;SDS011;70689;52.494;13.420;2023-08-01T10:11:23;0.95;;;0.70;;
81217;SDS011;70689;52.494;13.420;2023-08-01T10:13:48;1.02;;;0.90;;
81217;SDS011;70689;52.494;13.420;2023-08-01T10:16:15;2.08;;;1.33;;
81217;SDS011;70689;52.494;13.420;2023-08-01T10:18:42;1.50;;;0.90;;
81217;SDS011;70689;52.494;13.420;2023-08-01T10:21:09;1.38;;;1.08;;
81217;SDS011;70689;52.494;13.420;2023-08-01T10:23:38;0.90;;;0.90;;
81217;SDS011;70689;52.494;13.420;2023-08-01T10:26:06;0.90;;;0.85;;
81217;SDS011;70689;52.494;13.420;2023-08-01T10:28:34;1.13;;;0.98;;
81217;SDS011;70689;52.494;13.420;2023-08-01T10:31:14;0.90;;;0.90;;
81217;SDS011;70689;52.494;13.420;2023-08-01T10:33:41;1.05;;;0.90;;
81217;SDS011;70689;52.494;13.420;2023-08-01T10:44:04;0.75;;;0.70;;
81217;SDS011;70689;52.494;13.420;2023-08-01T10:49:15;3.13;;;1.00;;
81217;SDS011;70689;52.494;13.420;2023-08-01T10:51:41;3.83;;;1.00;;
81217;SDS011;70689;52.494;13.420;2023-08-01T10:54:17;6.07;;;1.20;;
81217;SDS011;70689;52.494;13.420;2023-08-01T10:56:46;4.53;;;1.10;;
81217;SDS011;70689;52.494;13.420;2023-08-01T10:59:15;3.13;;;2.40;;
81217;SDS011;70689;52.494;13.420;2023-08-01T11:01:57;3.13;;;2.20;;
81217;SDS011;70689;52.494;13.420;2023-08-01T11:04:24;1.35;;;1.00;;
81217;SDS011;70689;52.494;13.420;2023-08-01T11:06:53;2.30;;;1.50;;
81217;SDS011;70689;52.494;13.420;2023-08-01T11:09:24;2.33;;;1.10;;
81217;SDS011;70689;52.494;13.420;2023-08-01T11:11:52;1.20;;;1.00;;
81217;SDS011;70689;52.494;13.420;2023-08-01T11:14:20;1.10;;;1.00;;
81217;SDS011;70689;52.494;13.420;2023-08-01T11:16:47;1.40;;;1.30;;
81217;SDS011;70689;52.494;13.420;2023-08-01T11:19:21;2.58;;;1.30;;
81217;SDS011;70689;52.494;13.420;2023-08-01T11:21:54;1.98;;;1.23;;
81217;SDS011;70689;52.494;13.420;2023-08-01T11:24:25;6.78;;;3.92;;
81217;SDS011;70689;52.494;13.420;2023-08-01T11:26:52;2.08;;;1.40;;
81217;SDS011;70689;52.494;13.420;2023-08-01T11:29:19;3.53;;;1.50;;
81217;SDS011;70689;52.494;13.420;2023-08-01T11:31:59;3.03;;;1.60;;
81217;SDS011;70689;52.494;13.420;2023-08-01T11:34:25;3.53;;;2.20;;
81217;SDS011;70689;52.494;13.420;2023-08-01T11:36:51;2.80;;;2.03;;
81217;SDS011;70689;52.494;13.420;2023-08-01T11:39:17;2.58;;;1.80;;
81217;SDS011;70689;52.494;13.420;2023-08-01T11:41:43;2.60;;;1.80;;
81217;SDS011;70689;52.494;13.420;2023-08-01T11:44:09;4.47;;;2.00;;
81217;SDS011;70689;52.494;13.420;2023-08-01T11:46:36;3.03;;;1.98;;
81217;SDS011;70689;52.494;13.420;2023-08-01T11:49:04;4.18;;;2.20;;
81217;SDS011;70689;52.494;13.420;2023-08-01T11:51:38;5.18;;;2.30;;
81217;SDS011;70689;52.494;13.420;2023-08-01T11:54:05;4.05;;;2.10;;
81217;SDS011;70689;52.494;13.420;2023-08-01T11:56:32;2.63;;;2.10;;
81217;SDS011;70689;52.494;13.420;2023-08-01T11:58:58;5.47;;;2.17;;
81217;SDS011;70689;52.494;13.420;2023-08-01T12:01:24;4.25;;;2.58;;
81217;SDS011;70689;52.494;13.420;2023-08-01T12:03:51;5.47;;;3.40;;
81217;SDS011;70689;52.494;13.420;2023-08-01T12:06:19;5.00;;;2.88;;
81217;SDS011;70689;52.494;13.420;2023-08-01T12:08:49;6.68;;;3.30;;
81217;SDS011;70689;52.494;13.420;2023-08-01T12:13:47;10.23;;;3.15;;
81217;SDS011;70689;52.494;13.420;2023-08-01T12:16:24;4.47;;;3.00;;
81217;SDS011;70689;52.494;13.420;2023-08-01T12:18:50;4.53;;;2.92;;
81217;SDS011;70689;52.494;13.420;2023-08-01T12:21:15;3.25;;;2.75;;
81217;SDS011;70689;52.494;13.420;2023-08-01T12:23:41;4.40;;;2.50;;
81217;SDS011;70689;52.494;13.420;2023-08-01T12:26:07;4.85;;;3.25;;
81217;SDS011;70689;52.494;13.420;2023-08-01T12:28:33;3.55;;;2.70;;
81217;SDS011;70689;52.494;13.420;2023-08-01T12:30:59;5.93;;;2.90;;
81217;SDS011;70689;52.494;13.420;2023-08-01T12:33:25;4.32;;;3.20;;
81217;SDS011;70689;52.494;13.420;2023-08-01T12:35:51;3.50;;;2.80;;
81217;SDS011;70689;52.494;13.420;2023-08-01T12:38:16;6.93;;;2.88;;
81217;SDS011;70689;52.494;13.420;2023-08-01T12:40:42;3.55;;;2.85;;
81217;SDS011;70689;52.494;13.420;2023-08-01T12:43:08;5.65;;;3.08;;
81217;SDS011;70689;52.494;13.420;2023-08-01T12:45:33;7.60;;;3.03;;
81217;SDS011;70689;52.494;13.420;2023-08-01T12:47:59;6.43;;;3.08;;
81217;SDS011;70689;52.494;13.420;2023-08-01T12:50:25;7.05;;;3.17;;
81217;SDS011;70689;52.494;13.420;2023-08-01T12:52:50;4.95;;;3.00;;
81217;SDS011;70689;52.494;13.420;2023-08-01T12:55:16;6.30;;;3.08;;
81217;SDS011;70689;52.494;13.420;2023-08-01T12:57:42;5.38;;;3.13;;
81217;SDS011;70689;52.494;13.420;2023-08-01T13:00:08;6.85;;;3.00;;
81217;SDS011;70689;52.494;13.420;2023-08-01T13:02:35;5.47;;;3.28;;
81217;SDS011;70689;52.494;13.420;2023-08-01T13:05:02;4.90;;;3.22;;
81217;SDS011;70689;52.494;13.420;2023-08-01T13:07:29;7.22;;;3.40;;
81217;SDS011;70689;52.494;13.420;2023-08-01T13:09:57;4.20;;;2.70;;
81217;SDS011;70689;52.494;13.420;2023-08-01T13:12:23;3.95;;;2.60;;
81217;SDS011;70689;52.494;13.420;2023-08-01T13:14:49;4.75;;;3.00;;
81217;SDS011;70689;52.494;13.420;2023-08-01T13:17:15;6.32;;;3.28;;
81217;SDS011;70689;52.494;13.420;2023-08-01T13:19:40;4.40;;;3.10;;
81217;SDS011;70689;52.494;13.420;2023-08-01T13:22:06;3.00;;;2.50;;
81217;SDS011;70689;52.494;13.420;2023-08-01T13:24:31;3.72;;;2.90;;
81217;SDS011;70689;52.494;13.420;2023-08-01T13:26:57;3.80;;;2.70;;
81217;SDS011;70689;52.494;13.420;2023-08-01T13:29:23;5.45;;;2.70;;
81217;SDS011;70689;52.494;13.420;2023-08-01T13:31:49;6.60;;;3.10;;
81217;SDS011;70689;52.494;13.420;2023-08-01T13:34:14;7.65;;;2.70;;
81217;SDS011;70689;52.494;13.420;2023-08-01T13:36:42;6.97;;;2.50;;
81217;SDS011;70689;52.494;13.420;2023-08-01T13:39:08;3.95;;;2.65;;
81217;SDS011;70689;52.494;13.420;2023-08-01T13:41:33;4.57;;;2.58;;
81217;SDS011;70689;52.494;13.420;2023-08-01T13:43:59;6.60;;;2.83;;
81217;SDS011;70689;52.494;13.420;2023-08-01T13:46:25;4.95;;;2.78;;
81217;SDS011;70689;52.494;13.420;2023-08-01T13:48:50;4.10;;;2.70;;
81217;SDS011;70689;52.494;13.420;2023-08-01T13:51:16;4.57;;;2.90;;
81217;SDS011;70689;52.494;13.420;2023-08-01T13:53:42;6.13;;;3.10;;
81217;SDS011;70689;52.494;13.420;2023-08-01T13:56:11;4.00;;;2.55;;
81217;SDS011;70689;52.494;13.420;2023-08-01T13:58:37;3.90;;;3.00;;
81217;SDS011;70689;52.494;13.420;2023-08-01T14:01:07;5.05;;;2.38;;
81217;SDS011;70689;52.494;13.420;2023-08-01T14:03:34;3.88;;;2.40;;
81217;SDS011;70689;52.494;13.420;2023-08-01T14:06:04;5.03;;;2.95;;
81217;SDS011;70689;52.494;13.420;2023-08-01T14:08:33;3.15;;;2.28;;
81217;SDS011;70689;52.494;13.420;2023-08-01T14:11:00;4.88;;;2.75;;
81217;SDS011;70689;52.494;13.420;2023-08-01T14:13:27;3.78;;;2.58;;
81217;SDS011;70689;52.494;13.420;2023-08-01T14:15:53;3.80;;;2.70;;
81217;SDS011;70689;52.494;13.420;2023-08-01T14:18:19;3.05;;;2.63;;
81217;SDS011;70689;52.494;13.420;2023-08-01T14:20:44;3.92;;;2.58;;
81217;SDS011;70689;52.494;13.420;2023-08-01T14:23:10;5.68;;;2.90;;
81217;SDS011;70689;52.494;13.420;2023-08-01T14:25:35;4.55;;;2.63;;
81217;SDS011;70689;52.494;13.420;2023-08-01T14:28:01;4.55;;;2.55;;
81217;SDS011;70689;52.494;13.420;2023-08-01T14:30:27;5.13;;;3.20;;
81217;SDS011;70689;52.494;13.420;2023-08-01T14:33:02;5.25;;;2.55;;
81217;SDS011;70689;52.494;13.420;2023-08-01T14:35:29;5.07;;;2.40;;
81217;SDS011;70689;52.494;13.420;2023-08-01T14:37:55;2.80;;;2.08;;
81217;SDS011;70689;52.494;13.420;2023-08-01T14:40:21;6.75;;;2.97;;
81217;SDS011;70689;52.494;13.420;2023-08-01T14:42:47;5.97;;;2.28;;